sensor_id;sensor_type;location;lat;lon;timestamp;temperature;humidity
22779;DHT22;11556;51.194;3.800;2022-10-10T00:02:25;13.20;99.90
22779;DHT22;11556;51.194;3.800;2022-10-10T00:04:51;13.20;99.90
22779;DHT22;11556;51.194;3.800;2022-10-10T00:07:20;13.10;99.90
22779;DHT22;11556;51.194;3.800;2022-10-10T00:09:46;13.10;99.90
22779;DHT22;11556;51.194;3.800;2022-10-10T00:12:12;13.20;99.90
22779;DHT22;11556;51.194;3.800;2022-10-10T00:14:37;13.10;99.90
22779;DHT22;11556;51.194;3.800;2022-10-10T00:17:03;13.00;99.90
22779;DHT22;11556;51.194;3.800;2022-10-10T00:19:29;13.00;99.90
22779;DHT22;11556;51.194;3.800;2022-10-10T00:21:54;12.90;99.90
22779;DHT22;11556;51.194;3.800;2022-10-10T00:24:20;12.90;99.90
22779;DHT22;11556;51.194;3.800;2022-10-10T00:26:45;12.90;99.90
22779;DHT22;11556;51.194;3.800;2022-10-10T00:29:11;12.80;99.90
22779;DHT22;11556;51.194;3.800;2022-10-10T00:31:37;12.80;99.90
22779;DHT22;11556;51.194;3.800;2022-10-10T00:34:04;12.90;99.90
22779;DHT22;11556;51.194;3.800;2022-10-10T00:36:29;13.00;99.90
22779;DHT22;11556;51.194;3.800;2022-10-10T00:38:55;13.00;99.90
22779;DHT22;11556;51.194;3.800;2022-10-10T00:41:21;13.00;99.90
22779;DHT22;11556;51.194;3.800;2022-10-10T00:44:19;13.00;99.90
22779;DHT22;11556;51.194;3.800;2022-10-10T00:46:44;12.80;99.90
22779;DHT22;11556;51.194;3.800;2022-10-10T00:49:23;12.80;99.90
22779;DHT22;11556;51.194;3.800;2022-10-10T00:51:52;12.80;99.90
22779;DHT22;11556;51.194;3.800;2022-10-10T00:54:21;12.90;99.90
22779;DHT22;11556;51.194;3.800;2022-10-10T00:56:51;12.80;99.90
22779;DHT22;11556;51.194;3.800;2022-10-10T00:59:20;12.80;99.90
22779;DHT22;11556;51.194;3.800;2022-10-10T01:01:46;12.70;99.90
22779;DHT22;11556;51.194;3.800;2022-10-10T01:04:35;12.70;99.90
22779;DHT22;11556;51.194;3.800;2022-10-10T01:07:15;12.70;99.90
22779;DHT22;11556;51.194;3.800;2022-10-10T01:09:43;12.60;99.90
22779;DHT22;11556;51.194;3.800;2022-10-10T01:15:05;12.70;99.90
22779;DHT22;11556;51.194;3.800;2022-10-10T01:17:43;12.60;99.90
22779;DHT22;11556;51.194;3.800;2022-10-10T01:25:39;12.50;99.90
22779;DHT22;11556;51.194;3.800;2022-10-10T01:28:37;12.50;99.90
22779;DHT22;11556;51.194;3.800;2022-10-10T01:31:11;12.50;99.90
22779;DHT22;11556;51.194;3.800;2022-10-10T01:39:17;12.30;99.90
22779;DHT22;11556;51.194;3.800;2022-10-10T01:41:51;12.30;99.90
22779;DHT22;11556;51.194;3.800;2022-10-10T01:44:21;12.30;99.90
22779;DHT22;11556;51.194;3.800;2022-10-10T01:46:47;12.30;99.90
22779;DHT22;11556;51.194;3.800;2022-10-10T01:49:12;12.30;99.90
22779;DHT22;11556;51.194;3.800;2022-10-10T01:57:27;12.30;99.90
22779;DHT22;11556;51.194;3.800;2022-10-10T02:00:09;12.40;99.90
22779;DHT22;11556;51.194;3.800;2022-10-10T02:05:45;12.30;99.90
22779;DHT22;11556;51.194;3.800;2022-10-10T02:11:05;12.20;99.90
22779;DHT22;11556;51.194;3.800;2022-10-10T02:13:41;12.00;99.90
22779;DHT22;11556;51.194;3.800;2022-10-10T02:16:17;12.00;99.90
22779;DHT22;11556;51.194;3.800;2022-10-10T02:18:46;12.00;99.90
22779;DHT22;11556;51.194;3.800;2022-10-10T02:21:15;11.90;99.90
22779;DHT22;11556;51.194;3.800;2022-10-10T02:23:42;11.90;99.90
22779;DHT22;11556;51.194;3.800;2022-10-10T02:26:12;11.80;99.90
22779;DHT22;11556;51.194;3.800;2022-10-10T02:28:58;11.80;99.90
22779;DHT22;11556;51.194;3.800;2022-10-10T02:34:37;11.70;99.90
22779;DHT22;11556;51.194;3.800;2022-10-10T02:37:06;11.60;99.90
22779;DHT22;11556;51.194;3.800;2022-10-10T02:39:40;11.50;99.90
22779;DHT22;11556;51.194;3.800;2022-10-10T02:42:06;11.50;99.90
22779;DHT22;11556;51.194;3.800;2022-10-10T02:44:33;11.60;99.90
22779;DHT22;11556;51.194;3.800;2022-10-10T02:46:59;11.50;99.90
22779;DHT22;11556;51.194;3.800;2022-10-10T02:49:27;11.50;99.90
22779;DHT22;11556;51.194;3.800;2022-10-10T02:51:53;11.50;99.90
22779;DHT22;11556;51.194;3.800;2022-10-10T02:54:18;11.50;99.90
22779;DHT22;11556;51.194;3.800;2022-10-10T02:56:44;11.50;99.90
22779;DHT22;11556;51.194;3.800;2022-10-10T02:59:09;11.50;99.90
22779;DHT22;11556;51.194;3.800;2022-10-10T03:01:35;11.50;99.90
22779;DHT22;11556;51.194;3.800;2022-10-10T03:04:01;11.60;99.90
22779;DHT22;11556;51.194;3.800;2022-10-10T03:06:27;11.70;99.90
22779;DHT22;11556;51.194;3.800;2022-10-10T03:08:52;11.70;99.90
22779;DHT22;11556;51.194;3.800;2022-10-10T03:11:18;11.60;99.90
22779;DHT22;11556;51.194;3.800;2022-10-10T03:13:44;11.60;99.90
22779;DHT22;11556;51.194;3.800;2022-10-10T03:16:10;11.60;99.90
22779;DHT22;11556;51.194;3.800;2022-10-10T03:18:37;11.70;99.90
22779;DHT22;11556;51.194;3.800;2022-10-10T03:21:03;11.70;99.90
22779;DHT22;11556;51.194;3.800;2022-10-10T03:23:29;11.70;99.90
22779;DHT22;11556;51.194;3.800;2022-10-10T03:25:54;11.60;99.90
22779;DHT22;11556;51.194;3.800;2022-10-10T03:28:20;11.60;99.90
22779;DHT22;11556;51.194;3.800;2022-10-10T03:30:46;11.60;99.90
22779;DHT22;11556;51.194;3.800;2022-10-10T03:33:12;11.50;99.90
22779;DHT22;11556;51.194;3.800;2022-10-10T03:35:37;11.50;99.90
22779;DHT22;11556;51.194;3.800;2022-10-10T03:38:04;11.40;99.90
22779;DHT22;11556;51.194;3.800;2022-10-10T03:40:29;11.50;99.90
22779;DHT22;11556;51.194;3.800;2022-10-10T03:42:55;11.50;99.90
22779;DHT22;11556;51.194;3.800;2022-10-10T03:45:22;11.50;99.90
22779;DHT22;11556;51.194;3.800;2022-10-10T03:47:48;11.50;99.90
22779;DHT22;11556;51.194;3.800;2022-10-10T03:50:14;11.50;99.90
22779;DHT22;11556;51.194;3.800;2022-10-10T03:52:39;11.50;99.90
22779;DHT22;11556;51.194;3.800;2022-10-10T03:55:05;11.50;99.90
22779;DHT22;11556;51.194;3.800;2022-10-10T03:57:32;11.50;99.90
22779;DHT22;11556;51.194;3.800;2022-10-10T03:59:57;11.50;99.90
22779;DHT22;11556;51.194;3.800;2022-10-10T04:02:23;11.60;99.90
22779;DHT22;11556;51.194;3.800;2022-10-10T04:04:49;11.50;99.90
22779;DHT22;11556;51.194;3.800;2022-10-10T04:07:14;11.60;99.90
22779;DHT22;11556;51.194;3.800;2022-10-10T04:09:40;11.60;99.90
22779;DHT22;11556;51.194;3.800;2022-10-10T04:12:06;11.60;99.90
22779;DHT22;11556;51.194;3.800;2022-10-10T04:14:32;11.50;99.90
22779;DHT22;11556;51.194;3.800;2022-10-10T04:16:57;11.60;99.90
22779;DHT22;11556;51.194;3.800;2022-10-10T04:19:23;11.60;99.90
22779;DHT22;11556;51.194;3.800;2022-10-10T04:21:48;11.60;99.90
22779;DHT22;11556;51.194;3.800;2022-10-10T04:24:14;11.60;99.90
22779;DHT22;11556;51.194;3.800;2022-10-10T04:26:40;11.70;99.90
22779;DHT22;11556;51.194;3.800;2022-10-10T04:29:05;11.60;99.90
22779;DHT22;11556;51.194;3.800;2022-10-10T04:31:31;11.60;99.90
22779;DHT22;11556;51.194;3.800;2022-10-10T04:33:56;11.50;99.90
22779;DHT22;11556;51.194;3.800;2022-10-10T04:36:22;11.50;99.90
22779;DHT22;11556;51.194;3.800;2022-10-10T04:38:47;11.60;99.90
22779;DHT22;11556;51.194;3.800;2022-10-10T04:41:13;11.60;99.90
22779;DHT22;11556;51.194;3.800;2022-10-10T04:43:39;11.70;99.90
22779;DHT22;11556;51.194;3.800;2022-10-10T04:46:04;11.70;99.90
22779;DHT22;11556;51.194;3.800;2022-10-10T04:48:30;11.60;99.90
22779;DHT22;11556;51.194;3.800;2022-10-10T04:50:58;11.60;99.90
22779;DHT22;11556;51.194;3.800;2022-10-10T04:53:25;11.60;99.90
22779;DHT22;11556;51.194;3.800;2022-10-10T04:55:51;11.50;99.90
22779;DHT22;11556;51.194;3.800;2022-10-10T04:58:16;11.50;99.90
22779;DHT22;11556;51.194;3.800;2022-10-10T05:00:42;11.50;99.90
22779;DHT22;11556;51.194;3.800;2022-10-10T05:03:08;11.50;99.90
22779;DHT22;11556;51.194;3.800;2022-10-10T05:05:35;11.60;99.90
22779;DHT22;11556;51.194;3.800;2022-10-10T05:08:01;11.60;99.90
22779;DHT22;11556;51.194;3.800;2022-10-10T05:10:27;11.60;99.90
22779;DHT22;11556;51.194;3.800;2022-10-10T05:12:52;11.50;99.90
22779;DHT22;11556;51.194;3.800;2022-10-10T05:15:18;11.60;99.90
22779;DHT22;11556;51.194;3.800;2022-10-10T05:17:44;11.50;99.90
22779;DHT22;11556;51.194;3.800;2022-10-10T05:20:10;11.50;99.90
22779;DHT22;11556;51.194;3.800;2022-10-10T05:22:35;11.50;99.90
22779;DHT22;11556;51.194;3.800;2022-10-10T05:25:01;11.50;99.90
22779;DHT22;11556;51.194;3.800;2022-10-10T05:27:27;11.60;99.90
22779;DHT22;11556;51.194;3.800;2022-10-10T05:29:53;11.60;99.90
22779;DHT22;11556;51.194;3.800;2022-10-10T05:32:20;11.50;99.90
22779;DHT22;11556;51.194;3.800;2022-10-10T05:34:46;11.50;99.90
22779;DHT22;11556;51.194;3.800;2022-10-10T05:37:12;11.40;99.90
22779;DHT22;11556;51.194;3.800;2022-10-10T05:39:38;11.50;99.90
22779;DHT22;11556;51.194;3.800;2022-10-10T05:42:04;11.50;99.90
22779;DHT22;11556;51.194;3.800;2022-10-10T05:44:30;11.40;99.90
22779;DHT22;11556;51.194;3.800;2022-10-10T05:46:55;11.40;99.90
22779;DHT22;11556;51.194;3.800;2022-10-10T05:49:21;11.50;99.90
22779;DHT22;11556;51.194;3.800;2022-10-10T05:51:47;11.50;99.90
22779;DHT22;11556;51.194;3.800;2022-10-10T05:54:12;11.60;99.90
22779;DHT22;11556;51.194;3.800;2022-10-10T05:56:38;11.70;99.90
22779;DHT22;11556;51.194;3.800;2022-10-10T05:59:04;11.70;99.90
22779;DHT22;11556;51.194;3.800;2022-10-10T06:01:29;11.70;99.90
22779;DHT22;11556;51.194;3.800;2022-10-10T06:03:55;11.80;99.90
22779;DHT22;11556;51.194;3.800;2022-10-10T06:06:22;11.80;99.90
22779;DHT22;11556;51.194;3.800;2022-10-10T06:08:48;11.70;99.90
22779;DHT22;11556;51.194;3.800;2022-10-10T06:11:14;11.70;99.90
22779;DHT22;11556;51.194;3.800;2022-10-10T06:13:42;11.70;99.90
22779;DHT22;11556;51.194;3.800;2022-10-10T06:16:08;11.70;99.90
22779;DHT22;11556;51.194;3.800;2022-10-10T06:18:33;11.70;99.90
22779;DHT22;11556;51.194;3.800;2022-10-10T06:21:04;11.80;99.90
22779;DHT22;11556;51.194;3.800;2022-10-10T06:23:31;11.80;99.90
22779;DHT22;11556;51.194;3.800;2022-10-10T06:25:57;11.90;99.90
22779;DHT22;11556;51.194;3.800;2022-10-10T06:28:23;12.10;99.90
22779;DHT22;11556;51.194;3.800;2022-10-10T06:30:49;12.30;99.90
22779;DHT22;11556;51.194;3.800;2022-10-10T06:33:15;12.30;99.90
22779;DHT22;11556;51.194;3.800;2022-10-10T06:35:44;12.50;99.90
22779;DHT22;11556;51.194;3.800;2022-10-10T06:38:11;12.70;99.90
22779;DHT22;11556;51.194;3.800;2022-10-10T06:40:38;12.90;99.90
22779;DHT22;11556;51.194;3.800;2022-10-10T06:43:04;13.00;99.90
22779;DHT22;11556;51.194;3.800;2022-10-10T06:45:35;13.10;99.90
22779;DHT22;11556;51.194;3.800;2022-10-10T06:48:01;13.10;99.90
22779;DHT22;11556;51.194;3.800;2022-10-10T06:50:26;13.10;99.90
22779;DHT22;11556;51.194;3.800;2022-10-10T06:52:52;13.10;99.90
22779;DHT22;11556;51.194;3.800;2022-10-10T06:55:17;13.20;99.90
22779;DHT22;11556;51.194;3.800;2022-10-10T06:57:43;13.20;99.90
22779;DHT22;11556;51.194;3.800;2022-10-10T07:00:11;13.30;99.90
22779;DHT22;11556;51.194;3.800;2022-10-10T07:02:37;13.40;99.90
22779;DHT22;11556;51.194;3.800;2022-10-10T07:05:06;13.50;99.90
22779;DHT22;11556;51.194;3.800;2022-10-10T07:07:33;13.70;99.90
22779;DHT22;11556;51.194;3.800;2022-10-10T07:09:59;13.80;99.90
22779;DHT22;11556;51.194;3.800;2022-10-10T07:12:24;14.10;99.90
22779;DHT22;11556;51.194;3.800;2022-10-10T07:14:50;14.80;99.90
22779;DHT22;11556;51.194;3.800;2022-10-10T07:17:16;15.40;99.90
22779;DHT22;11556;51.194;3.800;2022-10-10T07:19:41;15.80;99.90
22779;DHT22;11556;51.194;3.800;2022-10-10T07:22:07;16.30;99.90
22779;DHT22;11556;51.194;3.800;2022-10-10T07:24:32;16.60;99.90
22779;DHT22;11556;51.194;3.800;2022-10-10T07:26:58;16.40;99.90
22779;DHT22;11556;51.194;3.800;2022-10-10T07:29:23;16.10;99.90
22779;DHT22;11556;51.194;3.800;2022-10-10T07:31:49;16.00;99.90
22779;DHT22;11556;51.194;3.800;2022-10-10T07:34:15;15.90;99.90
22779;DHT22;11556;51.194;3.800;2022-10-10T07:36:40;15.90;99.90
22779;DHT22;11556;51.194;3.800;2022-10-10T07:39:06;16.00;99.90
22779;DHT22;11556;51.194;3.800;2022-10-10T07:41:32;16.40;99.90
22779;DHT22;11556;51.194;3.800;2022-10-10T07:43:57;16.90;99.90
22779;DHT22;11556;51.194;3.800;2022-10-10T07:46:23;17.50;99.90
22779;DHT22;11556;51.194;3.800;2022-10-10T07:48:49;17.60;99.90
22779;DHT22;11556;51.194;3.800;2022-10-10T07:51:15;17.50;99.90
22779;DHT22;11556;51.194;3.800;2022-10-10T07:53:41;17.90;99.90
22779;DHT22;11556;51.194;3.800;2022-10-10T07:56:09;18.10;99.90
22779;DHT22;11556;51.194;3.800;2022-10-10T07:58:35;18.10;99.90
22779;DHT22;11556;51.194;3.800;2022-10-10T08:01:05;17.80;99.90
22779;DHT22;11556;51.194;3.800;2022-10-10T08:03:31;17.70;99.90
22779;DHT22;11556;51.194;3.800;2022-10-10T08:05:57;17.30;99.90
22779;DHT22;11556;51.194;3.800;2022-10-10T08:08:23;17.20;99.90
22779;DHT22;11556;51.194;3.800;2022-10-10T08:10:48;17.30;99.90
22779;DHT22;11556;51.194;3.800;2022-10-10T08:13:14;17.40;99.90
22779;DHT22;11556;51.194;3.800;2022-10-10T08:15:40;17.50;99.90
22779;DHT22;11556;51.194;3.800;2022-10-10T08:18:06;17.50;99.90
22779;DHT22;11556;51.194;3.800;2022-10-10T08:20:31;17.60;99.90
22779;DHT22;11556;51.194;3.800;2022-10-10T08:22:57;17.70;99.90
22779;DHT22;11556;51.194;3.800;2022-10-10T08:25:23;17.80;99.90
22779;DHT22;11556;51.194;3.800;2022-10-10T08:27:48;18.10;99.90
22779;DHT22;11556;51.194;3.800;2022-10-10T08:30:14;18.70;99.90
22779;DHT22;11556;51.194;3.800;2022-10-10T08:32:40;18.80;99.90
22779;DHT22;11556;51.194;3.800;2022-10-10T08:35:05;18.90;99.90
22779;DHT22;11556;51.194;3.800;2022-10-10T08:37:31;18.90;99.90
22779;DHT22;11556;51.194;3.800;2022-10-10T08:39:57;19.10;99.90
22779;DHT22;11556;51.194;3.800;2022-10-10T08:42:35;19.10;99.90
22779;DHT22;11556;51.194;3.800;2022-10-10T08:45:05;19.30;99.90
22779;DHT22;11556;51.194;3.800;2022-10-10T08:47:59;19.70;99.90
22779;DHT22;11556;51.194;3.800;2022-10-10T08:50:32;20.50;99.90
22779;DHT22;11556;51.194;3.800;2022-10-10T08:53:21;21.10;99.90
22779;DHT22;11556;51.194;3.800;2022-10-10T08:55:48;21.90;99.90
22779;DHT22;11556;51.194;3.800;2022-10-10T08:58:21;22.40;99.90
22779;DHT22;11556;51.194;3.800;2022-10-10T09:11:21;22.90;98.80
22779;DHT22;11556;51.194;3.800;2022-10-10T09:19:38;22.30;98.70
22779;DHT22;11556;51.194;3.800;2022-10-10T09:22:17;22.10;99.80
22779;DHT22;11556;51.194;3.800;2022-10-10T09:24:49;22.60;99.90
22779;DHT22;11556;51.194;3.800;2022-10-10T09:27:22;23.10;99.50
22779;DHT22;11556;51.194;3.800;2022-10-10T09:29:56;23.70;97.60
22779;DHT22;11556;51.194;3.800;2022-10-10T09:32:42;24.20;96.30
22779;DHT22;11556;51.194;3.800;2022-10-10T09:35:30;24.90;94.60
22779;DHT22;11556;51.194;3.800;2022-10-10T09:38:33;25.20;92.60
22779;DHT22;11556;51.194;3.800;2022-10-10T09:41:24;24.80;92.60
22779;DHT22;11556;51.194;3.800;2022-10-10T09:43:57;24.50;93.40
22779;DHT22;11556;51.194;3.800;2022-10-10T09:46:24;24.20;93.60
22779;DHT22;11556;51.194;3.800;2022-10-10T09:48:51;23.80;94.90
22779;DHT22;11556;51.194;3.800;2022-10-10T09:51:18;23.80;94.30
22779;DHT22;11556;51.194;3.800;2022-10-10T09:53:46;23.90;94.20
22779;DHT22;11556;51.194;3.800;2022-10-10T09:56:18;23.70;94.60
22779;DHT22;11556;51.194;3.800;2022-10-10T09:58:47;23.40;95.00
22779;DHT22;11556;51.194;3.800;2022-10-10T10:01:16;23.20;95.90
22779;DHT22;11556;51.194;3.800;2022-10-10T10:03:43;23.20;95.70
22779;DHT22;11556;51.194;3.800;2022-10-10T10:06:14;23.20;96.70
22779;DHT22;11556;51.194;3.800;2022-10-10T10:08:40;23.40;96.00
22779;DHT22;11556;51.194;3.800;2022-10-10T10:11:27;23.50;95.90
22779;DHT22;11556;51.194;3.800;2022-10-10T10:13:55;24.00;95.80
22779;DHT22;11556;51.194;3.800;2022-10-10T10:16:37;24.50;94.20
22779;DHT22;11556;51.194;3.800;2022-10-10T10:19:04;25.10;92.70
22779;DHT22;11556;51.194;3.800;2022-10-10T10:21:31;25.70;92.20
22779;DHT22;11556;51.194;3.800;2022-10-10T10:24:22;26.00;91.10
22779;DHT22;11556;51.194;3.800;2022-10-10T10:26:53;26.40;89.30
22779;DHT22;11556;51.194;3.800;2022-10-10T10:29:31;26.80;87.30
22779;DHT22;11556;51.194;3.800;2022-10-10T10:54:46;30.30;73.10
22779;DHT22;11556;51.194;3.800;2022-10-10T11:00:17;32.30;67.40
22779;DHT22;11556;51.194;3.800;2022-10-10T11:08:51;31.40;65.50
22779;DHT22;11556;51.194;3.800;2022-10-10T11:11:33;30.50;68.30
22779;DHT22;11556;51.194;3.800;2022-10-10T11:17:22;28.40;73.90
22779;DHT22;11556;51.194;3.800;2022-10-10T11:22:32;26.90;81.70
22779;DHT22;11556;51.194;3.800;2022-10-10T11:25:04;26.40;83.90
22779;DHT22;11556;51.194;3.800;2022-10-10T11:27:45;26.20;85.20
22779;DHT22;11556;51.194;3.800;2022-10-10T11:30:15;25.80;86.70
22779;DHT22;11556;51.194;3.800;2022-10-10T11:33:01;25.30;86.80
22779;DHT22;11556;51.194;3.800;2022-10-10T11:35:37;25.00;90.40
22779;DHT22;11556;51.194;3.800;2022-10-10T11:38:39;24.70;90.50
22779;DHT22;11556;51.194;3.800;2022-10-10T11:41:16;24.20;91.40
22779;DHT22;11556;51.194;3.800;2022-10-10T11:49:42;22.60;99.20
22779;DHT22;11556;51.194;3.800;2022-10-10T11:52:18;22.30;99.90
22779;DHT22;11556;51.194;3.800;2022-10-10T11:54:50;22.10;99.90
22779;DHT22;11556;51.194;3.800;2022-10-10T11:57:34;22.00;99.90
22779;DHT22;11556;51.194;3.800;2022-10-10T12:00:05;21.80;99.90
22779;DHT22;11556;51.194;3.800;2022-10-10T12:02:34;21.60;99.90
22779;DHT22;11556;51.194;3.800;2022-10-10T12:05:05;21.50;99.90
22779;DHT22;11556;51.194;3.800;2022-10-10T12:07:46;21.40;99.90
22779;DHT22;11556;51.194;3.800;2022-10-10T12:10:26;21.30;99.90
22779;DHT22;11556;51.194;3.800;2022-10-10T12:12:59;21.10;99.90
22779;DHT22;11556;51.194;3.800;2022-10-10T12:15:35;20.90;99.90
22779;DHT22;11556;51.194;3.800;2022-10-10T12:18:02;20.70;99.90
22779;DHT22;11556;51.194;3.800;2022-10-10T12:20:33;20.50;99.90
22779;DHT22;11556;51.194;3.800;2022-10-10T12:23:30;20.30;99.90
22779;DHT22;11556;51.194;3.800;2022-10-10T12:25:55;20.20;99.90
22779;DHT22;11556;51.194;3.800;2022-10-10T12:44:26;21.10;99.90
22779;DHT22;11556;51.194;3.800;2022-10-10T12:54:45;19.90;99.90
22779;DHT22;11556;51.194;3.800;2022-10-10T12:57:20;19.80;99.90
22779;DHT22;11556;51.194;3.800;2022-10-10T12:59:50;19.60;99.90
22779;DHT22;11556;51.194;3.800;2022-10-10T13:02:20;19.60;99.90
22779;DHT22;11556;51.194;3.800;2022-10-10T13:04:50;19.60;99.90
22779;DHT22;11556;51.194;3.800;2022-10-10T13:07:18;19.40;99.90
22779;DHT22;11556;51.194;3.800;2022-10-10T13:09:46;19.10;99.90
22779;DHT22;11556;51.194;3.800;2022-10-10T13:12:28;18.80;99.90
22779;DHT22;11556;51.194;3.800;2022-10-10T13:14:55;18.80;99.90
22779;DHT22;11556;51.194;3.800;2022-10-10T13:17:24;18.70;99.90
22779;DHT22;11556;51.194;3.800;2022-10-10T13:19:51;18.80;99.90
22779;DHT22;11556;51.194;3.800;2022-10-10T13:22:17;18.70;99.90
22779;DHT22;11556;51.194;3.800;2022-10-10T13:24:43;18.60;99.90
22779;DHT22;11556;51.194;3.800;2022-10-10T13:27:16;18.50;99.90
22779;DHT22;11556;51.194;3.800;2022-10-10T13:29:42;18.30;99.90
22779;DHT22;11556;51.194;3.800;2022-10-10T13:32:21;18.20;99.90
22779;DHT22;11556;51.194;3.800;2022-10-10T13:35:01;18.10;99.90
22779;DHT22;11556;51.194;3.800;2022-10-10T13:37:28;18.10;99.90
22779;DHT22;11556;51.194;3.800;2022-10-10T13:39:54;18.10;99.90
22779;DHT22;11556;51.194;3.800;2022-10-10T13:42:40;18.10;99.90
22779;DHT22;11556;51.194;3.800;2022-10-10T13:50:30;17.80;99.90
22779;DHT22;11556;51.194;3.800;2022-10-10T14:01:37;17.00;99.90
22779;DHT22;11556;51.194;3.800;2022-10-10T14:06:45;16.90;99.90
22779;DHT22;11556;51.194;3.800;2022-10-10T14:09:30;16.80;99.90
22779;DHT22;11556;51.194;3.800;2022-10-10T14:11:58;16.70;99.90
22779;DHT22;11556;51.194;3.800;2022-10-10T14:14:40;16.70;99.90
22779;DHT22;11556;51.194;3.800;2022-10-10T14:17:07;16.60;99.90
22779;DHT22;11556;51.194;3.800;2022-10-10T14:19:34;16.50;99.90
22779;DHT22;11556;51.194;3.800;2022-10-10T14:21:59;16.50;99.90
22779;DHT22;11556;51.194;3.800;2022-10-10T14:24:25;16.50;99.90
22779;DHT22;11556;51.194;3.800;2022-10-10T14:26:51;16.60;99.90
22779;DHT22;11556;51.194;3.800;2022-10-10T14:29:17;16.60;99.90
22779;DHT22;11556;51.194;3.800;2022-10-10T14:31:44;16.70;99.90
22779;DHT22;11556;51.194;3.800;2022-10-10T14:34:11;16.60;99.90
22779;DHT22;11556;51.194;3.800;2022-10-10T14:36:46;16.60;99.90
22779;DHT22;11556;51.194;3.800;2022-10-10T14:39:14;16.60;99.90
22779;DHT22;11556;51.194;3.800;2022-10-10T14:41:40;16.60;99.90
22779;DHT22;11556;51.194;3.800;2022-10-10T14:44:05;16.60;99.90
22779;DHT22;11556;51.194;3.800;2022-10-10T14:46:31;16.60;99.90
22779;DHT22;11556;51.194;3.800;2022-10-10T14:48:56;16.70;99.90
22779;DHT22;11556;51.194;3.800;2022-10-10T14:51:22;16.80;99.90
22779;DHT22;11556;51.194;3.800;2022-10-10T14:53:48;16.80;99.90
22779;DHT22;11556;51.194;3.800;2022-10-10T14:56:13;16.80;99.90
22779;DHT22;11556;51.194;3.800;2022-10-10T14:58:39;16.90;99.90
22779;DHT22;11556;51.194;3.800;2022-10-10T15:01:04;17.00;99.90
22779;DHT22;11556;51.194;3.800;2022-10-10T15:03:30;17.10;99.90
22779;DHT22;11556;51.194;3.800;2022-10-10T15:05:56;17.00;99.90
22779;DHT22;11556;51.194;3.800;2022-10-10T15:08:21;17.00;99.90
22779;DHT22;11556;51.194;3.800;2022-10-10T15:10:47;17.00;99.90
22779;DHT22;11556;51.194;3.800;2022-10-10T15:13:13;17.10;99.90
22779;DHT22;11556;51.194;3.800;2022-10-10T15:15:40;17.10;99.90
22779;DHT22;11556;51.194;3.800;2022-10-10T15:18:07;17.00;99.90
22779;DHT22;11556;51.194;3.800;2022-10-10T15:20:32;17.00;99.90
22779;DHT22;11556;51.194;3.800;2022-10-10T15:23:00;17.00;99.90
22779;DHT22;11556;51.194;3.800;2022-10-10T15:25:27;16.90;99.90
22779;DHT22;11556;51.194;3.800;2022-10-10T15:27:53;16.90;99.90
22779;DHT22;11556;51.194;3.800;2022-10-10T15:30:19;16.90;99.90
22779;DHT22;11556;51.194;3.800;2022-10-10T15:32:45;17.00;99.90
22779;DHT22;11556;51.194;3.800;2022-10-10T15:35:14;17.00;99.90
22779;DHT22;11556;51.194;3.800;2022-10-10T15:37:41;17.10;99.90
22779;DHT22;11556;51.194;3.800;2022-10-10T15:40:07;17.10;99.90
22779;DHT22;11556;51.194;3.800;2022-10-10T15:42:33;17.10;99.90
22779;DHT22;11556;51.194;3.800;2022-10-10T15:44:58;17.20;99.90
22779;DHT22;11556;51.194;3.800;2022-10-10T15:47:24;17.20;99.90
22779;DHT22;11556;51.194;3.800;2022-10-10T15:49:49;17.20;99.90
22779;DHT22;11556;51.194;3.800;2022-10-10T15:52:16;17.30;99.90
22779;DHT22;11556;51.194;3.800;2022-10-10T15:54:41;17.50;99.90
22779;DHT22;11556;51.194;3.800;2022-10-10T15:57:07;17.80;99.90
22779;DHT22;11556;51.194;3.800;2022-10-10T15:59:33;18.30;99.90
22779;DHT22;11556;51.194;3.800;2022-10-10T16:02:00;18.70;99.90
22779;DHT22;11556;51.194;3.800;2022-10-10T16:04:26;19.00;99.90
22779;DHT22;11556;51.194;3.800;2022-10-10T16:06:51;19.00;99.90
22779;DHT22;11556;51.194;3.800;2022-10-10T16:09:18;19.00;99.90
22779;DHT22;11556;51.194;3.800;2022-10-10T16:11:44;19.10;99.90
22779;DHT22;11556;51.194;3.800;2022-10-10T16:14:09;19.10;99.90
22779;DHT22;11556;51.194;3.800;2022-10-10T16:16:35;19.00;99.90
22779;DHT22;11556;51.194;3.800;2022-10-10T16:19:01;18.90;99.90
22779;DHT22;11556;51.194;3.800;2022-10-10T16:21:26;18.80;99.90
22779;DHT22;11556;51.194;3.800;2022-10-10T16:23:53;18.60;99.90
22779;DHT22;11556;51.194;3.800;2022-10-10T16:26:24;18.50;99.90
22779;DHT22;11556;51.194;3.800;2022-10-10T16:28:51;18.40;99.90
22779;DHT22;11556;51.194;3.800;2022-10-10T16:31:18;18.30;99.90
22779;DHT22;11556;51.194;3.800;2022-10-10T16:33:45;18.10;99.90
22779;DHT22;11556;51.194;3.800;2022-10-10T16:36:13;17.90;99.90
22779;DHT22;11556;51.194;3.800;2022-10-10T16:38:40;17.70;99.90
22779;DHT22;11556;51.194;3.800;2022-10-10T16:41:08;17.40;99.90
22779;DHT22;11556;51.194;3.800;2022-10-10T16:43:38;17.20;99.90
22779;DHT22;11556;51.194;3.800;2022-10-10T16:46:05;16.90;99.90
22779;DHT22;11556;51.194;3.800;2022-10-10T16:48:33;16.50;99.90
22779;DHT22;11556;51.194;3.800;2022-10-10T16:51:03;16.20;99.90
22779;DHT22;11556;51.194;3.800;2022-10-10T16:53:29;16.00;99.90
22779;DHT22;11556;51.194;3.800;2022-10-10T16:56:01;15.90;99.90
22779;DHT22;11556;51.194;3.800;2022-10-10T16:58:27;15.50;99.90
22779;DHT22;11556;51.194;3.800;2022-10-10T17:00:53;15.30;99.90
22779;DHT22;11556;51.194;3.800;2022-10-10T17:03:19;15.20;99.90
22779;DHT22;11556;51.194;3.800;2022-10-10T17:05:45;15.10;99.90
22779;DHT22;11556;51.194;3.800;2022-10-10T17:08:10;15.00;99.90
22779;DHT22;11556;51.194;3.800;2022-10-10T17:10:36;14.80;99.90
22779;DHT22;11556;51.194;3.800;2022-10-10T17:13:02;14.70;99.90
22779;DHT22;11556;51.194;3.800;2022-10-10T17:15:28;14.50;99.90
22779;DHT22;11556;51.194;3.800;2022-10-10T17:17:54;14.40;99.90
22779;DHT22;11556;51.194;3.800;2022-10-10T17:20:19;14.30;99.90
22779;DHT22;11556;51.194;3.800;2022-10-10T17:22:45;14.20;99.90
22779;DHT22;11556;51.194;3.800;2022-10-10T17:25:10;14.20;99.90
22779;DHT22;11556;51.194;3.800;2022-10-10T17:27:37;14.10;99.90
22779;DHT22;11556;51.194;3.800;2022-10-10T17:30:05;14.10;99.90
22779;DHT22;11556;51.194;3.800;2022-10-10T17:32:31;13.90;99.90
22779;DHT22;11556;51.194;3.800;2022-10-10T17:34:57;13.70;99.90
22779;DHT22;11556;51.194;3.800;2022-10-10T17:37:23;13.40;99.90
22779;DHT22;11556;51.194;3.800;2022-10-10T17:39:48;13.30;99.90
22779;DHT22;11556;51.194;3.800;2022-10-10T17:42:14;13.20;99.90
22779;DHT22;11556;51.194;3.800;2022-10-10T17:44:40;13.10;99.90
22779;DHT22;11556;51.194;3.800;2022-10-10T17:47:06;12.90;99.90
22779;DHT22;11556;51.194;3.800;2022-10-10T17:49:31;12.80;99.90